createdAt,value
2019-02-19T00:00:03.865Z,11.30
2019-02-19T00:05:10.971Z,11.30
2019-02-19T00:10:16.462Z,11.00
2019-02-19T00:15:22.023Z,10.80
2019-02-19T00:20:27.606Z,10.60
2019-02-19T00:25:33.164Z,10.90
2019-02-19T00:30:38.722Z,10.70
2019-02-19T00:35:44.217Z,10.90
2019-02-19T00:40:49.675Z,10.90
2019-02-19T00:45:55.147Z,10.80
2019-02-19T00:50:59.866Z,11.00
2019-02-19T00:56:05.358Z,11.10
2019-02-19T01:01:10.923Z,11.20
2019-02-19T01:06:16.489Z,10.90
2019-02-19T01:11:22.106Z,11.00
2019-02-19T01:16:27.655Z,11.20
2019-02-19T01:21:33.197Z,11.40
2019-02-19T01:26:38.693Z,11.60
2019-02-19T01:31:44.169Z,11.60
2019-02-19T01:36:49.732Z,11.50
2019-02-19T01:41:55.211Z,10.60
2019-02-19T01:47:00.684Z,10.10
2019-02-19T01:52:06.171Z,10.10
2019-02-19T01:57:11.652Z,10.40
2019-02-19T02:02:17.117Z,10.80
2019-02-19T02:07:22.649Z,11.00
2019-02-19T02:12:28.143Z,11.10
2019-02-19T02:17:33.620Z,10.80
2019-02-19T02:22:39.083Z,10.50
2019-02-19T02:27:44.637Z,10.00
2019-02-19T02:32:50.180Z,9.50
2019-02-19T02:37:55.651Z,9.90
2019-02-19T02:43:01.124Z,10.20
2019-02-19T02:48:06.661Z,10.60
2019-02-19T02:53:12.145Z,10.80
2019-02-19T02:58:17.945Z,10.90
2019-02-19T03:03:23.404Z,10.80
2019-02-19T03:08:28.941Z,10.70
2019-02-19T03:13:34.420Z,10.40
2019-02-19T03:18:39.911Z,10.40
2019-02-19T03:23:46.347Z,10.40
2019-02-19T03:28:51.894Z,10.10
2019-02-19T03:33:57.443Z,10.10
2019-02-19T03:39:04.609Z,10.20
2019-02-19T03:44:10.166Z,10.10
2019-02-19T03:49:15.717Z,9.80
2019-02-19T03:54:21.285Z,10.00
2019-02-19T03:59:26.904Z,9.80
2019-02-19T04:04:32.387Z,9.40
2019-02-19T04:09:37.991Z,9.30
2019-02-19T04:14:43.537Z,9.20
2019-02-19T04:19:49.022Z,9.30
2019-02-19T04:24:54.505Z,9.60
2019-02-19T04:30:00.314Z,9.70
2019-02-19T04:35:07.974Z,9.90
2019-02-19T04:40:13.441Z,9.40
2019-02-19T04:45:18.920Z,8.60
2019-02-19T04:50:24.414Z,8.60
2019-02-19T04:55:29.885Z,9.00
2019-02-19T05:00:35.497Z,9.30
2019-02-19T05:05:40.985Z,9.30
2019-02-19T05:10:46.608Z,9.50
2019-02-19T05:15:52.105Z,9.90
2019-02-19T05:20:57.585Z,10.20
2019-02-19T05:26:03.146Z,10.70
2019-02-19T05:31:08.612Z,11.00
2019-02-19T05:36:14.159Z,11.10
2019-02-19T05:41:19.637Z,10.80
2019-02-19T05:46:25.116Z,10.50
2019-02-19T05:51:30.599Z,10.10
2019-02-19T05:56:37.142Z,9.60
2019-02-19T06:01:42.655Z,8.70
2019-02-19T06:06:48.414Z,8.50
2019-02-19T06:11:53.890Z,8.50
2019-02-19T06:16:59.497Z,8.70
2019-02-19T06:22:05.101Z,8.70
2019-02-19T06:27:10.563Z,9.40
2019-02-19T06:32:26.097Z,9.90
2019-02-19T06:37:31.588Z,10.80
2019-02-19T06:42:37.129Z,12.60
2019-02-19T06:47:42.613Z,14.90
2019-02-19T06:52:48.099Z,16.10
2019-02-19T06:57:53.588Z,16.90
2019-02-19T07:03:06.764Z,17.00
2019-02-19T07:08:12.323Z,17.70
2019-02-19T07:13:17.800Z,18.00
2019-02-19T07:18:23.277Z,18.30
2019-02-19T07:23:28.869Z,18.50
2019-02-19T07:28:34.488Z,18.40
2019-02-19T07:33:40.053Z,18.30
2019-02-19T07:38:45.620Z,18.70
2019-02-19T07:43:51.204Z,19.00
2019-02-19T07:48:56.756Z,19.20
2019-02-19T07:54:03.488Z,19.80
2019-02-19T07:59:08.990Z,20.00
2019-02-19T08:04:14.497Z,20.30
2019-02-19T08:09:20.297Z,20.60
2019-02-19T08:14:25.780Z,21.10
2019-02-19T08:19:31.393Z,21.90
2019-02-19T08:24:36.876Z,21.80
2019-02-19T08:29:42.432Z,22.30
2019-02-19T08:34:47.914Z,22.70
2019-02-19T08:39:53.454Z,23.40
2019-02-19T08:44:58.931Z,22.60
2019-02-19T08:50:06.364Z,22.80
2019-02-19T08:55:12.045Z,23.60
2019-02-19T09:00:17.701Z,24.60
2019-02-19T09:05:23.185Z,24.70
2019-02-19T09:10:28.672Z,24.30
2019-02-19T09:15:34.152Z,23.10
2019-02-19T09:20:39.850Z,22.60
2019-02-19T09:25:45.414Z,22.80
2019-02-19T09:30:50.976Z,21.80
2019-02-19T09:35:56.518Z,21.30
2019-02-19T09:41:02.077Z,21.30
2019-02-19T09:46:07.561Z,21.10
2019-02-19T09:51:13.492Z,20.80
2019-02-19T09:56:18.992Z,21.10
2019-02-19T10:01:24.475Z,20.90
2019-02-19T10:06:30.142Z,20.90
2019-02-19T10:11:35.639Z,19.90
2019-02-19T10:16:41.835Z,19.50
2019-02-19T10:21:47.845Z,19.40
2019-02-19T10:26:53.413Z,18.40
2019-02-19T10:31:58.968Z,16.90
2019-02-19T10:37:04.604Z,16.80
2019-02-19T10:42:10.086Z,16.80
2019-02-19T10:47:15.567Z,16.60
2019-02-19T10:52:21.111Z,16.70
2019-02-19T10:57:26.640Z,16.70
2019-02-19T11:02:32.125Z,16.80
2019-02-19T11:07:37.670Z,17.10
2019-02-19T11:12:43.216Z,17.10
2019-02-19T11:17:48.724Z,17.10
2019-02-19T11:22:55.285Z,17.20
2019-02-19T11:28:00.882Z,17.40
2019-02-19T11:33:06.375Z,16.90
2019-02-19T11:38:12.034Z,16.80
2019-02-19T11:43:17.696Z,16.90
2019-02-19T11:48:23.181Z,17.00
2019-02-19T11:53:28.666Z,17.20
2019-02-19T11:58:34.224Z,16.90
2019-02-19T12:03:39.717Z,17.50
2019-02-19T12:08:45.202Z,17.70
2019-02-19T12:13:50.830Z,18.00
2019-02-19T12:18:56.301Z,18.50
2019-02-19T12:24:01.937Z,18.00
2019-02-19T12:29:07.406Z,18.10
2019-02-19T12:34:12.921Z,18.30
2019-02-19T12:39:18.427Z,18.00
2019-02-19T12:44:23.919Z,19.00
2019-02-19T12:49:29.473Z,20.70
2019-02-19T12:54:35.041Z,21.90
2019-02-19T12:59:40.603Z,22.60
2019-02-19T13:04:46.092Z,23.50
2019-02-19T13:09:51.837Z,23.20
2019-02-19T13:14:57.333Z,22.20
2019-02-19T13:20:02.970Z,22.10
2019-02-19T13:25:10.759Z,22.50
2019-02-19T13:30:22.594Z,22.90
2019-02-19T13:35:28.155Z,22.80
2019-02-19T13:40:34.684Z,20.90
2019-02-19T13:45:40.290Z,20.20
2019-02-19T13:50:45.897Z,19.00
2019-02-19T13:55:53.082Z,18.30
2019-02-19T14:00:58.568Z,17.80
2019-02-19T14:06:04.121Z,18.30
2019-02-19T14:11:09.619Z,17.70
2019-02-19T14:16:16.761Z,17.70
2019-02-19T14:21:38.951Z,17.20
2019-02-19T14:27:03.371Z,17.00
2019-02-19T14:32:19.591Z,16.90
2019-02-19T14:37:29.725Z,16.90
2019-02-19T14:42:55.734Z,16.40
2019-02-19T14:48:08.688Z,16.10
2019-02-19T14:53:15.863Z,16.10
2019-02-19T14:58:39.300Z,15.70
2019-02-19T15:03:48.990Z,16.00
2019-02-19T15:09:02.170Z,16.30
2019-02-19T15:14:19.619Z,16.00
2019-02-19T15:19:27.815Z,15.70
2019-02-19T15:24:37.456Z,15.70
2019-02-19T15:29:44.586Z,15.60
2019-02-19T15:35:06.748Z,15.70
2019-02-19T15:40:22.791Z,15.70
2019-02-19T15:46:00.113Z,15.30
2019-02-19T15:51:10.096Z,15.10
2019-02-19T15:56:17.805Z,14.90
2019-02-19T16:01:40.197Z,14.70
2019-02-19T16:06:47.385Z,14.50
2019-02-19T16:11:54.573Z,14.30
2019-02-19T16:17:18.070Z,14.30
2019-02-19T16:22:28.061Z,14.50
2019-02-19T16:27:44.054Z,14.70
2019-02-19T16:32:51.254Z,14.60
2019-02-19T16:38:04.440Z,14.60
2019-02-19T16:43:17.483Z,14.70
2019-02-19T16:48:36.619Z,14.50
2019-02-19T16:53:59.039Z,14.70
2019-02-19T16:59:22.523Z,15.10
2019-02-19T17:04:38.700Z,14.90
2019-02-19T17:09:48.853Z,14.50
2019-02-19T17:14:59.287Z,14.20
2019-02-19T17:20:28.549Z,13.90
2019-02-19T17:25:32.370Z,13.80
2019-02-19T17:30:42.509Z,13.70
2019-02-19T17:35:55.146Z,13.40
2019-02-19T17:41:02.418Z,13.30
2019-02-19T17:46:09.731Z,13.50
2019-02-19T17:51:28.808Z,13.60
2019-02-19T17:56:35.957Z,13.60
2019-02-19T18:01:52.185Z,13.60
2019-02-19T18:07:15.901Z,14.00
2019-02-19T18:12:23.257Z,13.90
2019-02-19T18:17:30.450Z,13.80
2019-02-19T18:22:36.079Z,13.80
2019-02-19T18:27:41.715Z,13.70
2019-02-19T18:32:47.353Z,14.50
2019-02-19T18:37:52.842Z,14.10
2019-02-19T18:42:58.339Z,14.30
2019-02-19T18:48:03.978Z,14.30
2019-02-19T18:53:09.613Z,15.00
2019-02-19T18:58:15.109Z,15.20
2019-02-19T19:03:20.660Z,15.40
2019-02-19T19:08:26.291Z,15.20
2019-02-19T19:13:31.929Z,14.60
2019-02-19T19:18:37.619Z,14.70
2019-02-19T19:23:43.262Z,14.00
2019-02-19T19:28:48.752Z,14.20
2019-02-19T19:33:54.374Z,14.50
2019-02-19T19:39:00.006Z,15.00
2019-02-19T19:44:05.649Z,14.80
2019-02-19T19:49:12.078Z,15.20
2019-02-19T19:54:17.732Z,14.90
2019-02-19T19:59:24.321Z,13.70
2019-02-19T20:04:29.928Z,13.10
2019-02-19T20:09:35.597Z,12.80
2019-02-19T20:14:41.244Z,12.20
2019-02-19T20:19:46.946Z,12.70
2019-02-19T20:24:52.654Z,11.90
2019-02-19T20:29:59.544Z,11.50
2019-02-19T20:35:07.709Z,11.20
2019-02-19T20:40:13.449Z,11.40
2019-02-19T20:45:20.328Z,11.00
2019-02-19T20:50:26.025Z,10.90
2019-02-19T20:55:36.958Z,10.80
2019-02-19T21:00:38.816Z,11.00
2019-02-19T21:05:45.834Z,11.00
2019-02-19T21:10:51.322Z,10.70
2019-02-19T21:15:57.013Z,10.70
2019-02-19T21:21:02.590Z,10.80
2019-02-19T21:26:08.182Z,10.80
2019-02-19T21:31:13.735Z,10.70
2019-02-19T21:36:19.367Z,10.90
2019-02-19T21:41:24.991Z,10.60
2019-02-19T21:46:30.542Z,10.50
2019-02-19T21:51:36.752Z,10.50
2019-02-19T21:56:42.454Z,10.90
2019-02-19T22:01:48.016Z,10.50
2019-02-19T22:06:53.686Z,10.60
2019-02-19T22:11:59.244Z,10.60
2019-02-19T22:17:04.743Z,10.30
2019-02-19T22:22:12.165Z,10.30
2019-02-19T22:27:17.660Z,10.10
2019-02-19T22:32:23.144Z,10.10
2019-02-19T22:37:28.705Z,9.80
2019-02-19T22:42:34.285Z,9.70
2019-02-19T22:47:39.816Z,9.70
2019-02-19T22:52:45.469Z,9.80
2019-02-19T22:57:51.044Z,9.70
2019-02-19T23:02:56.830Z,9.80
2019-02-19T23:08:02.431Z,9.60
2019-02-19T23:13:09.514Z,9.80
2019-02-19T23:18:16.167Z,10.20
2019-02-19T23:23:21.767Z,9.60
2019-02-19T23:28:27.360Z,9.70
2019-02-19T23:33:32.981Z,9.50
2019-02-19T23:38:38.536Z,9.60
2019-02-19T23:43:45.256Z,9.40
2019-02-19T23:48:50.815Z,9.80
2019-02-19T23:53:56.430Z,9.40
2019-02-19T23:59:01.945Z,9.40
